Time;durP1;ratioP1;P1;durP2;ratioP2;P2;SDS_P1;SDS_P2;PMS_P1;PMS_P2;Temp;Humidity;BMP_temperature;BMP_pressure;BME280_temperature;BME280_humidity;BME280_pressure;Samples;Min_cycle;Max_cycle;Signal;HPM_P1;HPM_P2
2023/12/31 00:00:34;;;;;;;7.20;5.07;;;8.60;99.90;;;;;;5030744;28;20025;-64
2023/12/31 00:03:00;;;;;;;9.70;5.90;;;8.50;99.90;;;;;;5012578;28;20040;-64
2023/12/31 00:05:26;;;;;;;7.53;5.32;;;8.50;99.90;;;;;;5030316;28;20501;-55
2023/12/31 00:07:52;;;;;;;10.63;5.45;;;8.60;99.90;;;;;;5013004;28;20488;-58
2023/12/31 00:10:18;;;;;;;8.10;5.43;;;8.50;99.90;;;;;;5030495;28;20111;-60
2023/12/31 00:12:44;;;;;;;7.40;5.55;;;8.50;99.90;;;;;;5030045;28;20460;-53
2023/12/31 00:15:10;;;;;;;8.50;5.18;;;8.40;99.90;;;;;;5011600;28;20029;-53
2023/12/31 00:17:35;;;;;;;8.38;5.18;;;8.40;99.90;;;;;;5030785;28;20165;-56
2023/12/31 00:20:02;;;;;;;8.20;5.55;;;8.40;99.90;;;;;;5032768;28;20325;-49
2023/12/31 00:22:27;;;;;;;6.55;4.95;;;8.40;99.90;;;;;;5032536;28;20032;-54
2023/12/31 00:24:54;;;;;;;9.00;5.30;;;8.50;99.90;;;;;;5033238;28;20611;-48
2023/12/31 00:27:20;;;;;;;8.85;4.90;;;8.60;99.90;;;;;;5015493;28;20026;-50
2023/12/31 00:29:45;;;;;;;8.23;4.35;;;8.50;99.90;;;;;;5015484;28;20026;-49
2023/12/31 00:32:11;;;;;;;6.25;5.13;;;8.50;99.90;;;;;;5032846;28;20075;-50
2023/12/31 00:34:37;;;;;;;6.72;4.07;;;8.40;99.90;;;;;;5015636;28;20040;-52
2023/12/31 00:37:03;;;;;;;26.67;13.48;;;8.30;99.90;;;;;;5015281;28;20025;-52
2023/12/31 00:39:29;;;;;;;16.40;8.57;;;8.30;99.90;;;;;;5015257;28;20023;-50
2023/12/31 00:41:54;;;;;;;7.78;5.00;;;8.30;99.90;;;;;;5032886;28;20392;-51
2023/12/31 00:44:19;;;;;;;6.97;5.50;;;8.30;99.90;;;;;;5032633;28;20539;-50
2023/12/31 00:46:45;;;;;;;9.70;4.47;;;8.30;99.90;;;;;;5033468;28;20033;-51
2023/12/31 00:49:10;;;;;;;8.75;5.03;;;8.30;99.90;;;;;;5015026;28;20454;-52
2023/12/31 00:51:36;;;;;;;9.95;4.43;;;8.10;99.90;;;;;;5032533;28;20037;-52
2023/12/31 00:54:01;;;;;;;5.78;4.13;;;8.30;99.90;;;;;;5032604;28;20443;-47
2023/12/31 00:56:27;;;;;;;5.20;4.30;;;8.20;99.90;;;;;;5032531;28;20036;-49
2023/12/31 00:58:52;;;;;;;4.55;3.38;;;8.20;99.90;;;;;;5015161;28;20023;-50
2023/12/31 01:01:18;;;;;;;6.00;4.30;;;8.10;99.90;;;;;;5032577;28;20566;-51
2023/12/31 01:03:43;;;;;;;6.75;3.92;;;8.00;99.90;;;;;;5014764;28;20029;-49
2023/12/31 01:06:09;;;;;;;4.57;3.58;;;7.90;99.90;;;;;;5014650;28;20036;-52
2023/12/31 01:08:34;;;;;;;4.15;3.60;;;8.00;99.90;;;;;;5032712;28;20044;-47
2023/12/31 01:11:00;;;;;;;4.15;3.47;;;7.90;99.90;;;;;;5014665;28;20509;-50
2023/12/31 01:13:27;;;;;;;8.38;4.22;;;7.80;99.90;;;;;;5032205;28;20030;-48
2023/12/31 01:15:52;;;;;;;9.63;3.92;;;7.80;99.90;;;;;;5032224;28;20033;-49
2023/12/31 01:18:19;;;;;;;5.82;3.55;;;7.70;99.90;;;;;;5032099;28;20369;-52
2023/12/31 01:20:44;;;;;;;8.68;4.20;;;7.70;99.90;;;;;;5032256;28;20473;-49
2023/12/31 01:23:10;;;;;;;5.00;3.70;;;7.70;99.90;;;;;;5031996;28;20139;-49
2023/12/31 01:25:36;;;;;;;7.70;4.93;;;7.70;99.90;;;;;;5031743;28;20036;-48
2023/12/31 01:28:02;;;;;;;8.25;4.22;;;7.60;99.90;;;;;;5032077;28;20341;-49
2023/12/31 01:30:28;;;;;;;6.90;3.53;;;7.70;99.90;;;;;;5014213;28;20029;-49
2023/12/31 01:32:54;;;;;;;8.18;3.92;;;7.60;99.90;;;;;;5032181;28;20025;-52
2023/12/31 01:35:19;;;;;;;4.07;3.58;;;7.60;99.90;;;;;;5031754;28;20516;-50
2023/12/31 01:37:46;;;;;;;4.97;3.50;;;7.50;99.90;;;;;;5032060;28;20450;-49
2023/12/31 01:40:11;;;;;;;4.63;3.28;;;7.50;99.90;;;;;;5031719;28;20389;-50
2023/12/31 01:42:37;;;;;;;5.32;3.53;;;7.50;99.90;;;;;;5031586;28;20084;-50
2023/12/31 01:45:03;;;;;;;4.32;2.90;;;7.50;99.90;;;;;;5031900;28;20025;-50
2023/12/31 01:47:29;;;;;;;6.00;3.30;;;7.50;99.90;;;;;;5031657;28;20044;-51
2023/12/31 01:49:55;;;;;;;4.72;3.25;;;7.60;99.90;;;;;;5014043;28;20436;-50
2023/12/31 01:52:24;;;;;;;4.60;3.28;;;7.50;99.90;;;;;;5031578;28;20033;-53
2023/12/31 01:54:51;;;;;;;4.35;3.55;;;7.50;99.90;;;;;;5031648;28;20052;-48
2023/12/31 01:57:18;;;;;;;4.68;3.35;;;7.50;99.90;;;;;;5031703;28;20017;-50
2023/12/31 01:59:44;;;;;;;6.30;3.28;;;7.60;99.90;;;;;;5014087;28;20032;-51
2023/12/31 02:02:09;;;;;;;5.20;2.70;;;7.60;99.90;;;;;;5013627;28;20022;-48
2023/12/31 02:04:35;;;;;;;4.03;3.28;;;7.60;99.90;;;;;;5031686;28;20025;-54
2023/12/31 02:07:01;;;;;;;4.97;3.03;;;7.60;99.90;;;;;;5031564;28;20159;-50
2023/12/31 02:09:28;;;;;;;5.22;2.85;;;7.50;99.90;;;;;;5031617;28;20400;-52
2023/12/31 02:11:54;;;;;;;6.00;3.60;;;7.50;99.90;;;;;;5031465;28;20523;-53
2023/12/31 02:14:20;;;;;;;4.88;3.20;;;7.50;99.90;;;;;;5031094;28;20079;-51
2023/12/31 02:16:46;;;;;;;3.72;3.03;;;7.50;99.90;;;;;;5013628;28;20029;-47
2023/12/31 02:19:11;;;;;;;3.80;2.95;;;7.60;99.90;;;;;;5031317;28;20091;-51
2023/12/31 02:21:37;;;;;;;5.28;2.92;;;7.50;99.90;;;;;;5013568;28;20036;-52
2023/12/31 02:24:03;;;;;;;4.65;3.15;;;7.50;99.90;;;;;;5031290;28;20099;-51
2023/12/31 02:26:29;;;;;;;4.22;2.95;;;7.50;99.90;;;;;;5013707;28;20117;-48
2023/12/31 02:28:54;;;;;;;4.35;3.47;;;7.40;99.90;;;;;;5031528;28;20021;-49
2023/12/31 02:31:20;;;;;;;4.78;2.97;;;7.50;99.90;;;;;;5013506;28;20032;-50
2023/12/31 02:33:45;;;;;;;4.78;3.08;;;7.50;99.90;;;;;;5031061;28;20041;-50
2023/12/31 02:36:11;;;;;;;3.75;3.00;;;7.40;99.90;;;;;;5031303;28;20072;-47
2023/12/31 02:38:36;;;;;;;4.97;3.08;;;7.30;99.90;;;;;;5034777;28;20028;-49
2023/12/31 02:41:02;;;;;;;3.20;2.60;;;7.30;99.90;;;;;;5017456;28;20021;-51
2023/12/31 02:43:28;;;;;;;3.42;2.53;;;7.30;99.90;;;;;;5034955;28;20028;-48
2023/12/31 02:45:53;;;;;;;2.83;2.40;;;7.30;99.90;;;;;;5034853;28;20034;-47
2023/12/31 02:48:19;;;;;;;3.55;2.80;;;7.40;99.90;;;;;;5034985;28;20034;-51
2023/12/31 02:50:44;;;;;;;6.57;2.50;;;7.40;99.90;;;;;;5035098;28;20096;-50
2023/12/31 02:53:10;;;;;;;3.55;2.70;;;7.30;99.90;;;;;;5017044;28;20045;-53
2023/12/31 02:55:35;;;;;;;3.60;2.92;;;7.30;99.90;;;;;;5034932;28;20025;-47
2023/12/31 02:58:01;;;;;;;3.80;3.15;;;7.20;99.90;;;;;;5017359;28;20075;-48
2023/12/31 03:00:26;;;;;;;6.30;3.40;;;7.30;99.90;;;;;;5034902;28;20369;-49
2023/12/31 03:02:52;;;;;;;5.43;3.83;;;7.20;99.90;;;;;;5016872;28;20026;-52
2023/12/31 03:05:17;;;;;;;2.60;2.40;;;7.30;99.90;;;;;;5017131;28;20427;-51
2023/12/31 03:07:43;;;;;;;4.10;3.03;;;7.10;99.90;;;;;;5034794;28;20472;-52
2023/12/31 03:10:09;;;;;;;5.80;2.95;;;7.10;99.90;;;;;;5034694;28;20086;-53
2023/12/31 03:12:34;;;;;;;4.57;3.10;;;7.00;99.90;;;;;;5034447;28;20049;-50
2023/12/31 03:15:00;;;;;;;3.45;2.78;;;7.00;99.90;;;;;;5016725;28;20052;-48
2023/12/31 03:17:25;;;;;;;6.30;3.13;;;7.20;99.90;;;;;;5034558;28;20021;-52
2023/12/31 03:19:51;;;;;;;4.78;3.13;;;7.10;99.90;;;;;;5034427;28;20112;-48
2023/12/31 03:22:17;;;;;;;7.82;2.95;;;7.10;99.90;;;;;;5016367;28;20066;-51
2023/12/31 03:24:43;;;;;;;4.68;3.30;;;7.00;99.90;;;;;;5034240;28;20037;-52
2023/12/31 03:27:09;;;;;;;4.80;3.40;;;7.10;99.90;;;;;;5034463;28;20021;-49
2023/12/31 03:29:35;;;;;;;4.90;2.72;;;7.00;99.90;;;;;;5034279;28;20388;-52
2023/12/31 03:32:01;;;;;;;6.00;3.40;;;7.00;99.90;;;;;;5034108;28;20388;-50
2023/12/31 03:34:26;;;;;;;3.75;3.13;;;6.90;99.90;;;;;;5033812;28;20047;-50
2023/12/31 03:36:52;;;;;;;6.18;3.72;;;6.90;99.90;;;;;;5034708;28;20021;-48
2023/12/31 03:39:17;;;;;;;4.22;3.63;;;7.00;99.90;;;;;;5034145;28;20071;-48
2023/12/31 03:41:43;;;;;;;3.45;3.15;;;7.10;99.90;;;;;;5034082;28;20388;-48
2023/12/31 03:44:08;;;;;;;6.72;4.18;;;7.20;99.90;;;;;;5015954;28;20025;-45
2023/12/31 03:46:34;;;;;;;3.50;2.90;;;7.20;99.90;;;;;;5033852;28;20033;-47
2023/12/31 03:48:59;;;;;;;4.70;3.50;;;7.10;99.90;;;;;;5033893;28;20097;-47
2023/12/31 03:51:25;;;;;;;4.75;4.15;;;7.10;99.90;;;;;;5033820;28;20026;-48
2023/12/31 03:53:50;;;;;;;4.32;3.30;;;7.10;99.90;;;;;;5033993;28;20544;-47
2023/12/31 03:56:16;;;;;;;6.72;4.38;;;7.10;99.90;;;;;;5033673;28;20393;-48
2023/12/31 03:58:42;;;;;;;5.22;3.00;;;7.30;99.90;;;;;;5033767;28;20488;-48
2023/12/31 04:01:07;;;;;;;13.65;4.25;;;7.10;99.90;;;;;;5033615;28;20042;-49
2023/12/31 04:03:33;;;;;;;4.13;3.33;;;7.00;99.90;;;;;;5033440;28;20071;-47
2023/12/31 04:05:58;;;;;;;6.00;3.50;;;7.00;99.90;;;;;;5015874;28;20028;-45
2023/12/31 04:08:24;;;;;;;6.25;3.45;;;7.00;99.90;;;;;;5033649;28;20501;-48
2023/12/31 04:10:50;;;;;;;5.22;4.00;;;7.10;99.90;;;;;;5033488;28;20033;-48
2023/12/31 04:13:17;;;;;;;4.28;3.88;;;7.00;99.90;;;;;;5015470;28;20025;-51
2023/12/31 04:15:43;;;;;;;5.93;4.45;;;7.00;99.90;;;;;;5033354;28;20025;-47
2023/12/31 04:18:09;;;;;;;7.50;3.72;;;7.10;99.90;;;;;;5015822;28;20025;-51
2023/12/31 04:20:34;;;;;;;4.80;3.47;;;7.10;99.90;;;;;;5033262;28;20022;-51
2023/12/31 04:23:00;;;;;;;5.22;4.07;;;7.10;99.90;;;;;;5015214;28;20021;-48
2023/12/31 04:25:25;;;;;;;4.82;3.78;;;7.20;99.90;;;;;;5033231;28;20100;-50
2023/12/31 04:27:51;;;;;;;3.33;3.00;;;7.30;99.90;;;;;;5033294;28;20025;-47
2023/12/31 04:30:18;;;;;;;4.25;3.80;;;7.20;99.90;;;;;;5033001;28;20030;-53
2023/12/31 04:32:44;;;;;;;5.10;3.00;;;7.10;99.90;;;;;;5032734;28;20045;-50
2023/12/31 04:35:10;;;;;;;7.45;3.55;;;7.00;99.90;;;;;;5015041;28;20472;-50
2023/12/31 04:37:35;;;;;;;4.78;3.15;;;6.90;99.90;;;;;;5015148;28;20497;-51
2023/12/31 04:40:01;;;;;;;5.00;3.40;;;6.80;99.90;;;;;;5032905;28;20033;-52
2023/12/31 04:42:27;;;;;;;4.53;3.38;;;6.80;99.90;;;;;;5032579;28;20048;-53
2023/12/31 04:44:52;;;;;;;6.88;4.00;;;6.70;99.90;;;;;;5032614;28;20321;-50
2023/12/31 04:47:20;;;;;;;5.30;3.92;;;;;;;;;;5033113;28;20050;-50
2023/12/31 04:49:45;;;;;;;5.57;3.75;;;6.50;99.90;;;;;;5015207;28;20029;-52
2023/12/31 04:52:11;;;;;;;6.30;3.80;;;6.60;99.90;;;;;;5032292;28;20083;-50
2023/12/31 04:54:38;;;;;;;6.03;4.05;;;6.50;99.90;;;;;;5032388;28;20108;-50
2023/12/31 04:57:04;;;;;;;6.15;3.88;;;6.50;99.90;;;;;;5014722;28;20512;-49
2023/12/31 04:59:29;;;;;;;6.43;3.30;;;6.40;99.90;;;;;;5031819;28;20113;-51
2023/12/31 05:01:55;;;;;;;4.93;2.85;;;6.40;99.90;;;;;;5032452;28;20083;-47
2023/12/31 05:04:20;;;;;;;5.40;3.30;;;6.40;99.90;;;;;;5014454;28;20032;-50
2023/12/31 05:06:46;;;;;;;7.28;4.03;;;6.40;99.90;;;;;;5032688;28;20031;-50
2023/12/31 05:09:11;;;;;;;6.25;3.60;;;6.50;99.90;;;;;;5032364;28;20493;-54
2023/12/31 05:11:38;;;;;;;6.90;3.90;;;6.40;99.90;;;;;;5032085;28;20057;-49
2023/12/31 05:14:04;;;;;;;7.97;3.88;;;6.30;99.90;;;;;;5014379;28;20488;-48
2023/12/31 05:16:31;;;;;;;6.78;3.58;;;6.20;99.90;;;;;;5032898;28;20060;-49
2023/12/31 05:18:58;;;;;;;3.95;3.33;;;6.10;99.90;;;;;;5031974;28;20022;-47
2023/12/31 05:21:24;;;;;;;4.63;3.55;;;6.10;99.90;;;;;;5014244;28;20493;-51
2023/12/31 05:23:50;;;;;;;5.30;3.85;;;6.20;99.90;;;;;;5032027;28;20029;-51
2023/12/31 05:26:15;;;;;;;6.03;3.92;;;6.20;99.90;;;;;;5031827;28;20030;-51
2023/12/31 05:28:41;;;;;;;4.18;3.55;;;6.20;99.90;;;;;;5014554;28;20940;-49
2023/12/31 05:31:07;;;;;;;5.85;3.90;;;6.20;99.90;;;;;;5014207;28;20489;-47
2023/12/31 05:33:32;;;;;;;3.67;3.00;;;6.10;99.90;;;;;;5031551;28;20125;-48
2023/12/31 05:35:57;;;;;;;3.95;3.25;;;6.20;99.90;;;;;;5031512;28;20034;-47
2023/12/31 05:38:23;;;;;;;4.22;3.40;;;6.20;99.90;;;;;;5014212;28;20052;-47
2023/12/31 05:40:48;;;;;;;5.82;3.35;;;6.20;99.90;;;;;;5031741;28;20374;-47
2023/12/31 05:43:14;;;;;;;5.68;3.72;;;6.20;99.90;;;;;;5013929;28;20032;-44
2023/12/31 05:45:40;;;;;;;7.30;4.07;;;6.20;99.90;;;;;;5032051;28;20041;-47
2023/12/31 05:48:06;;;;;;;6.78;3.47;;;6.20;99.90;;;;;;5032223;28;20028;-47
2023/12/31 05:50:31;;;;;;;5.22;3.67;;;6.30;99.90;;;;;;5031978;28;20393;-50
2023/12/31 05:52:57;;;;;;;6.88;3.67;;;6.40;99.90;;;;;;5032792;28;20445;-50
2023/12/31 05:55:23;;;;;;;4.55;3.80;;;6.40;99.90;;;;;;5032599;28;20028;-52
2023/12/31 05:57:48;;;;;;;6.85;3.78;;;6.40;99.90;;;;;;5032770;28;20036;-51
2023/12/31 06:00:14;;;;;;;5.13;3.38;;;6.50;99.90;;;;;;5014901;28;20370;-49
2023/12/31 06:02:40;;;;;;;5.55;3.65;;;6.50;99.90;;;;;;5013732;28;20095;-47
2023/12/31 06:05:06;;;;;;;5.38;3.05;;;6.60;99.90;;;;;;5031997;28;20021;-52
2023/12/31 06:07:32;;;;;;;6.20;3.53;;;6.60;99.90;;;;;;5031566;28;20033;-49
2023/12/31 06:09:58;;;;;;;4.30;3.72;;;6.40;99.90;;;;;;5031688;28;20033;-48
2023/12/31 06:12:23;;;;;;;5.63;3.35;;;6.60;99.90;;;;;;5030402;28;20029;-47
2023/12/31 06:14:49;;;;;;;7.47;5.25;;;6.50;99.90;;;;;;5031370;28;20111;-50
2023/12/31 06:17:14;;;;;;;5.22;4.13;;;6.50;99.90;;;;;;5031458;28;20032;-50
2023/12/31 06:19:40;;;;;;;4.97;4.00;;;6.50;99.90;;;;;;5031262;28;20030;-49
2023/12/31 06:22:06;;;;;;;4.10;3.70;;;6.60;99.90;;;;;;5013384;28;20102;-47
2023/12/31 06:24:31;;;;;;;4.43;3.33;;;6.60;99.90;;;;;;5031292;28;20040;-48
2023/12/31 06:26:57;;;;;;;3.95;3.50;;;6.60;99.90;;;;;;5031328;28;20083;-47
2023/12/31 06:29:22;;;;;;;4.80;3.90;;;6.60;99.90;;;;;;5031242;28;20022;-51
2023/12/31 06:31:48;;;;;;;4.68;3.67;;;6.70;99.90;;;;;;5031300;28;20070;-47
2023/12/31 06:34:14;;;;;;;4.20;3.20;;;6.80;99.90;;;;;;5030706;28;20030;-50
2023/12/31 06:36:39;;;;;;;4.22;3.28;;;6.80;99.90;;;;;;5031830;28;20029;-48
2023/12/31 06:39:07;;;;;;;5.55;3.35;;;6.90;99.90;;;;;;5031206;28;20026;-49
2023/12/31 06:41:33;;;;;;;5.28;3.72;;;6.90;99.90;;;;;;5031077;28;20022;-47
2023/12/31 06:43:59;;;;;;;10.25;3.70;;;7.00;99.90;;;;;;5013259;28;20022;-52
2023/12/31 06:46:25;;;;;;;4.70;3.50;;;7.00;99.90;;;;;;5031269;28;20488;-51
2023/12/31 06:48:51;;;;;;;7.43;5.00;;;7.00;99.90;;;;;;5013155;28;20049;-51
2023/12/31 06:51:16;;;;;;;9.18;5.30;;;7.10;99.90;;;;;;5013335;28;20119;-47
2023/12/31 06:53:42;;;;;;;7.70;4.72;;;7.00;99.90;;;;;;5013045;28;20121;-51
2023/12/31 06:56:08;;;;;;;5.63;4.18;;;7.00;99.90;;;;;;5013229;28;20048;-51
2023/12/31 06:58:35;;;;;;;7.40;4.13;;;6.90;99.90;;;;;;5013356;28;20400;-50
2023/12/31 07:01:01;;;;;;;6.22;3.58;;;6.90;99.90;;;;;;5030910;28;20100;-48
2023/12/31 07:03:26;;;;;;;7.15;4.82;;;6.90;99.90;;;;;;5030868;28;20104;-49
2023/12/31 07:05:52;;;;;;;6.05;3.55;;;6.90;99.90;;;;;;5030891;28;20021;-54
2023/12/31 07:08:17;;;;;;;4.55;3.33;;;6.90;99.90;;;;;;5013438;28;20029;-51
2023/12/31 07:10:43;;;;;;;3.72;3.10;;;7.00;99.90;;;;;;5030907;28;20037;-48
2023/12/31 07:13:08;;;;;;;3.88;2.92;;;7.10;99.90;;;;;;5030920;28;20056;-51
2023/12/31 07:15:35;;;;;;;6.00;3.83;;;7.10;99.90;;;;;;5030916;28;20396;-51
2023/12/31 07:18:00;;;;;;;4.93;3.33;;;7.10;99.90;;;;;;5030984;28;20184;-49
2023/12/31 07:20:26;;;;;;;5.35;4.05;;;7.00;99.90;;;;;;5030935;28;20021;-51
2023/12/31 07:22:53;;;;;;;5.47;3.90;;;7.10;99.90;;;;;;5013570;28;20210;-49
2023/12/31 07:25:20;;;;;;;5.72;3.67;;;7.20;99.90;;;;;;5034030;28;20025;-51
2023/12/31 07:27:45;;;;;;;8.85;3.97;;;7.20;99.90;;;;;;5034504;28;20029;-47
2023/12/31 07:30:11;;;;;;;3.53;3.22;;;7.30;99.90;;;;;;5034261;28;20037;-50
2023/12/31 07:32:36;;;;;;;5.00;3.45;;;7.30;99.90;;;;;;5016195;28;20120;-48
2023/12/31 07:35:02;;;;;;;9.10;4.78;;;7.40;99.90;;;;;;5034071;28;20408;-47
2023/12/31 07:37:28;;;;;;;5.95;3.85;;;7.50;99.90;;;;;;5016510;28;20464;-47
2023/12/31 07:39:53;;;;;;;5.97;4.38;;;7.50;99.90;;;;;;5034018;28;20033;-50
2023/12/31 07:42:19;;;;;;;6.75;5.18;;;7.50;99.90;;;;;;5033895;28;20113;-49
2023/12/31 07:44:44;;;;;;;5.35;4.47;;;7.50;99.90;;;;;;5033872;28;20036;-51
2023/12/31 07:47:10;;;;;;;6.63;5.22;;;7.50;99.90;;;;;;5033893;28;20432;-48
2023/12/31 07:49:36;;;;;;;6.88;4.13;;;7.40;99.90;;;;;;5033921;28;20509;-52
2023/12/31 07:52:02;;;;;;;6.95;4.13;;;7.30;99.90;;;;;;5033546;28;20025;-53
2023/12/31 07:54:27;;;;;;;6.22;4.22;;;7.40;99.90;;;;;;5033478;28;20096;-48
2023/12/31 07:56:53;;;;;;;6.30;4.20;;;7.30;99.90;;;;;;5016016;28;20021;-48
2023/12/31 07:59:18;;;;;;;6.45;4.40;;;7.50;99.90;;;;;;5033943;28;20049;-50
2023/12/31 08:01:44;;;;;;;7.47;4.00;;;7.50;99.90;;;;;;5033694;28;20021;-52
2023/12/31 08:04:09;;;;;;;4.80;4.03;;;7.50;99.90;;;;;;5033429;28;20070;-47
2023/12/31 08:06:36;;;;;;;5.38;4.13;;;7.50;99.90;;;;;;5033697;28;20029;-52
2023/12/31 08:09:02;;;;;;;6.07;4.05;;;7.50;99.90;;;;;;5033504;28;20539;-50
2023/12/31 08:11:27;;;;;;;4.47;3.30;;;7.70;99.90;;;;;;5033284;28;20029;-48
2023/12/31 08:13:54;;;;;;;4.57;3.53;;;7.80;99.90;;;;;;5033215;28;20026;-51
2023/12/31 08:16:19;;;;;;;4.20;3.22;;;7.90;99.90;;;;;;5033287;28;20029;-49
2023/12/31 08:18:45;;;;;;;3.97;3.00;;;7.90;99.90;;;;;;5033308;28;20505;-51
2023/12/31 08:21:11;;;;;;;4.38;3.00;;;7.80;99.90;;;;;;5033222;28;20017;-49
2023/12/31 08:23:36;;;;;;;4.00;2.95;;;7.80;99.90;;;;;;5032745;28;20049;-51
2023/12/31 08:26:03;;;;;;;4.65;3.03;;;7.80;99.90;;;;;;5015418;28;20048;-52
2023/12/31 08:28:29;;;;;;;2.90;2.50;;;7.80;99.90;;;;;;5033163;28;20076;-50
2023/12/31 08:30:55;;;;;;;4.70;2.67;;;7.90;99.90;;;;;;5033299;28;20049;-53
2023/12/31 08:33:20;;;;;;;3.13;2.35;;;7.90;99.90;;;;;;5015113;28;20029;-51
2023/12/31 08:35:46;;;;;;;2.20;2.00;;;7.90;99.90;;;;;;5013978;28;20497;-50
2023/12/31 08:38:11;;;;;;;2.50;2.25;;;8.00;99.90;;;;;;5032799;28;20463;-49
2023/12/31 08:40:37;;;;;;;3.42;2.63;;;8.00;99.90;;;;;;5032780;28;20036;-50
2023/12/31 08:43:03;;;;;;;3.42;2.72;;;8.00;99.90;;;;;;5014796;28;20021;-48
2023/12/31 08:45:28;;;;;;;2.05;1.95;;;8.10;99.90;;;;;;5032651;28;20160;-48
2023/12/31 08:47:54;;;;;;;1.67;1.58;;;8.20;99.90;;;;;;5015090;28;20108;-50
2023/12/31 08:50:20;;;;;;;2.35;2.08;;;8.30;99.90;;;;;;5032651;28;20346;-50
2023/12/31 08:52:46;;;;;;;3.55;2.28;;;8.40;99.90;;;;;;5032530;28;20037;-48
2023/12/31 08:55:13;;;;;;;2.40;2.08;;;8.50;99.90;;;;;;5032488;28;20036;-51
2023/12/31 08:57:42;;;;;;;3.83;3.03;;;8.50;99.90;;;;;;5034767;28;20026;-51
2023/12/31 09:00:09;;;;;;;7.20;2.60;;;8.60;99.90;;;;;;5014714;28;20021;-47
2023/12/31 09:02:34;;;;;;;3.10;2.50;;;8.60;99.90;;;;;;5032302;28;20057;-52
2023/12/31 09:05:01;;;;;;;2.83;2.53;;;8.70;99.90;;;;;;5032223;28;20504;-54
2023/12/31 09:07:26;;;;;;;2.88;2.25;;;8.70;99.90;;;;;;5032422;28;20092;-50
2023/12/31 09:09:52;;;;;;;3.55;2.58;;;8.80;99.90;;;;;;5032310;28;20552;-48
2023/12/31 09:12:18;;;;;;;2.83;2.17;;;8.90;99.90;;;;;;5014259;28;20057;-52
2023/12/31 09:14:43;;;;;;;2.33;2.17;;;9.00;99.90;;;;;;5032026;28;20579;-53
2023/12/31 09:17:09;;;;;;;2.47;2.28;;;9.00;99.90;;;;;;5032288;28;20400;-47
2023/12/31 09:19:36;;;;;;;2.42;2.22;;;9.10;99.90;;;;;;5032104;28;20025;-50
2023/12/31 09:22:02;;;;;;;2.33;2.13;;;9.10;99.90;;;;;;5036606;28;20439;-48
2023/12/31 09:24:28;;;;;;;2.47;2.28;;;9.10;99.90;;;;;;5040600;28;20472;-59
2023/12/31 09:26:54;;;;;;;3.67;2.67;;;9.00;99.90;;;;;;5031845;28;20033;-58
2023/12/31 09:29:19;;;;;;;3.22;2.50;;;9.10;99.90;;;;;;5044241;28;20477;-57
2023/12/31 09:31:45;;;;;;;3.85;3.20;;;9.00;99.90;;;;;;5032528;28;20021;-55
2023/12/31 09:34:11;;;;;;;3.65;2.88;;;9.00;99.90;;;;;;5034882;28;20523;-56
2023/12/31 09:36:36;;;;;;;2.70;2.50;;;9.10;99.90;;;;;;5022287;28;20029;-55
2023/12/31 09:39:02;;;;;;;2.95;2.60;;;9.00;99.90;;;;;;5022041;28;20021;-51
2023/12/31 09:41:29;;;;;;;4.63;3.00;;;9.00;99.90;;;;;;5031674;28;20039;-54
2023/12/31 09:43:54;;;;;;;3.85;3.00;;;9.00;99.90;;;;;;5031979;28;20064;-53
2023/12/31 09:46:21;;;;;;;3.17;2.88;;;9.00;99.90;;;;;;5049818;28;20062;-57
2023/12/31 09:48:49;;;;;;;3.22;2.92;;;8.90;99.90;;;;;;5050694;28;20551;-60
2023/12/31 09:51:18;;;;;;;4.47;3.40;;;8.90;99.90;;;;;;4994711;28;20034;-54
2023/12/31 09:53:49;;;;;;;4.20;3.28;;;8.90;99.90;;;;;;4994033;28;20033;-58
2023/12/31 09:56:17;;;;;;;4.47;4.00;;;9.00;99.90;;;;;;5011851;28;20109;-56
2023/12/31 09:58:43;;;;;;;4.03;3.63;;;8.90;99.90;;;;;;5011874;28;20029;-54
2023/12/31 10:01:09;;;;;;;3.80;3.40;;;9.00;99.90;;;;;;4994348;28;20412;-51
2023/12/31 10:03:38;;;;;;;3.85;3.42;;;9.00;99.90;;;;;;5032822;28;20029;-52
2023/12/31 10:06:05;;;;;;;5.78;3.50;;;9.00;99.90;;;;;;5051472;28;20404;-51
2023/12/31 10:08:31;;;;;;;5.80;3.50;;;9.00;99.90;;;;;;5051369;28;20040;-54
2023/12/31 10:10:58;;;;;;;4.28;3.35;;;9.00;99.90;;;;;;5033545;28;20025;-56
2023/12/31 10:13:23;;;;;;;4.97;2.97;;;9.00;99.90;;;;;;5051113;28;20029;-55
2023/12/31 10:15:51;;;;;;;5.15;3.65;;;9.00;99.90;;;;;;5039889;28;20611;-55
2023/12/31 10:18:16;;;;;;;5.38;3.40;;;9.00;99.90;;;;;;5051302;28;20111;-51
2023/12/31 10:20:42;;;;;;;6.70;4.13;;;9.00;99.90;;;;;;5026767;28;20018;-54
2023/12/31 10:23:08;;;;;;;3.08;2.80;;;9.10;99.90;;;;;;5021505;28;20396;-52
2023/12/31 10:25:33;;;;;;;11.35;3.65;;;9.10;99.90;;;;;;5051178;28;20021;-56
2023/12/31 10:27:59;;;;;;;4.10;3.55;;;9.10;99.90;;;;;;5038746;28;20144;-58
2023/12/31 10:30:25;;;;;;;5.15;3.63;;;9.20;99.90;;;;;;5031205;28;20108;-55
2023/12/31 10:32:51;;;;;;;5.55;3.28;;;9.20;99.90;;;;;;5030952;28;20029;-58
2023/12/31 10:35:20;;;;;;;4.93;3.42;;;9.30;99.90;;;;;;5031192;28;20056;-57
2023/12/31 10:37:46;;;;;;;3.33;2.85;;;9.30;99.90;;;;;;5014774;28;20037;-56
2023/12/31 10:40:19;;;;;;;12.00;3.80;;;9.30;99.90;;;;;;5031104;28;20022;-56
2023/12/31 10:42:48;;;;;;;4.03;3.17;;;9.30;99.90;;;;;;5014829;28;20396;-55
2023/12/31 10:45:18;;;;;;;5.32;2.53;;;9.30;99.90;;;;;;5039634;28;20070;-54
2023/12/31 10:47:45;;;;;;;3.47;3.17;;;9.30;99.90;;;;;;5023827;28;20068;-58
2023/12/31 10:50:16;;;;;;;4.35;3.72;;;9.30;99.90;;;;;;5014629;28;20493;-56
2023/12/31 10:52:42;;;;;;;3.38;3.08;;;9.30;99.90;;;;;;5030523;28;20028;-57
2023/12/31 10:55:12;;;;;;;3.85;3.28;;;9.30;99.90;;;;;;5050695;28;20033;-57
2023/12/31 10:57:42;;;;;;;4.85;3.58;;;9.40;99.90;;;;;;5051045;28;20021;-55
2023/12/31 11:00:10;;;;;;;3.53;3.22;;;9.40;99.90;;;;;;5036012;28;20025;-56
2023/12/31 11:02:36;;;;;;;5.03;3.40;;;9.40;99.90;;;;;;5036513;28;20075;-56
2023/12/31 11:05:03;;;;;;;3.60;3.00;;;9.50;99.90;;;;;;5036565;28;20348;-54
2023/12/31 11:07:29;;;;;;;3.03;2.75;;;9.50;99.90;;;;;;5053101;28;20550;-56
2023/12/31 11:09:57;;;;;;;3.50;3.17;;;9.50;99.90;;;;;;5054600;28;20111;-56
2023/12/31 11:12:23;;;;;;;4.43;3.72;;;9.50;99.90;;;;;;5035273;28;20037;-55
2023/12/31 11:15:08;;;;;;;4.55;3.10;;;9.60;99.90;;;;;;5036432;28;20029;-53
2023/12/31 11:18:11;;;;;;;3.97;3.58;;;9.60;99.90;;;;;;5035646;28;20025;-56
2023/12/31 11:21:12;;;;;;;6.95;3.38;;;9.70;99.90;;;;;;5013373;28;20030;-57
2023/12/31 11:23:52;;;;;;;3.95;3.35;;;9.70;99.90;;;;;;5051003;28;20025;-57
2023/12/31 11:26:18;;;;;;;7.20;3.40;;;9.60;99.90;;;;;;5018289;28;20036;-60
2023/12/31 11:28:50;;;;;;;3.53;3.22;;;9.60;99.90;;;;;;5054353;28;20029;-62
2023/12/31 11:31:16;;;;;;;4.72;3.78;;;9.60;99.90;;;;;;5018299;28;20049;-58
2023/12/31 11:33:43;;;;;;;3.97;3.33;;;9.50;99.90;;;;;;5037355;28;20521;-56
2023/12/31 11:36:14;;;;;;;4.95;3.30;;;9.40;99.90;;;;;;5019041;28;20220;-54
2023/12/31 11:39:00;;;;;;;3.40;3.00;;;9.30;99.90;;;;;;5038292;28;20032;-58
2023/12/31 11:41:31;;;;;;;4.05;3.65;;;9.20;99.90;;;;;;5036193;28;20025;-57
2023/12/31 11:43:56;;;;;;;6.90;3.45;;;9.20;99.90;;;;;;5035972;28;20053;-56
2023/12/31 11:46:39;;;;;;;6.13;3.60;;;9.10;99.90;;;;;;5036368;28;20029;-57
2023/12/31 11:49:06;;;;;;;5.38;3.60;;;9.20;99.90;;;;;;5053864;28;20082;-57
2023/12/31 11:51:58;;;;;;;3.25;2.78;;;9.20;99.90;;;;;;5026341;28;20516;-56
2023/12/31 11:54:34;;;;;;;4.72;3.45;;;9.20;99.90;;;;;;5014219;28;20037;-64
2023/12/31 11:57:00;;;;;;;6.03;3.45;;;9.20;99.90;;;;;;5033921;28;20083;-57
2023/12/31 11:59:26;;;;;;;3.92;3.42;;;9.20;99.90;;;;;;5033873;28;20025;-57
2023/12/31 12:01:53;;;;;;;4.50;3.30;;;9.20;99.90;;;;;;5033895;28;20442;-57
2023/12/31 12:04:19;;;;;;;4.40;3.38;;;9.20;99.90;;;;;;5033636;28;20024;-59
2023/12/31 12:06:45;;;;;;;5.97;3.40;;;9.20;99.90;;;;;;5018340;28;20021;-60
2023/12/31 12:09:11;;;;;;;5.55;3.40;;;9.30;99.90;;;;;;5015913;28;20052;-60
2023/12/31 12:11:43;;;;;;;4.05;3.53;;;9.40;99.90;;;;;;5015609;28;20053;-60
2023/12/31 12:14:10;;;;;;;6.50;3.33;;;9.40;99.90;;;;;;5015456;28;20048;-57
2023/12/31 12:16:36;;;;;;;4.68;3.47;;;9.40;99.90;;;;;;5033704;28;20443;-53
2023/12/31 12:19:05;;;;;;;3.80;2.75;;;9.40;99.90;;;;;;5025191;28;20104;-51
2023/12/31 12:21:31;;;;;;;5.28;3.15;;;9.50;99.90;;;;;;5035309;28;20021;-57
2023/12/31 12:23:57;;;;;;;2.38;2.17;;;9.50;99.90;;;;;;5037845;28;20025;-53
2023/12/31 12:26:23;;;;;;;2.60;2.40;;;9.50;99.90;;;;;;5035357;28;20021;-48
2023/12/31 12:28:55;;;;;;;2.40;2.10;;;9.60;99.90;;;;;;5047953;28;20056;-50
2023/12/31 12:31:22;;;;;;;1.92;1.83;;;9.60;99.90;;;;;;5045129;28;20040;-52
2023/12/31 12:33:55;;;;;;;2.13;2.00;;;9.70;99.90;;;;;;5013152;28;20022;-52
2023/12/31 12:36:21;;;;;;;5.20;2.15;;;9.70;99.90;;;;;;5029814;28;20037;-50
2023/12/31 12:38:48;;;;;;;2.17;1.85;;;9.70;99.90;;;;;;5033275;28;20129;-57
2023/12/31 12:41:23;;;;;;;2.05;1.15;;;9.80;99.90;;;;;;5033421;28;20063;-52
2023/12/31 12:43:59;;;;;;;1.60;1.15;;;9.80;99.90;;;;;;5042570;28;20053;-55
2023/12/31 12:46:27;;;;;;;2.33;0.93;;;9.80;99.90;;;;;;5052798;28;20029;-50
2023/12/31 12:48:52;;;;;;;1.48;0.93;;;9.90;99.90;;;;;;5052560;28;20560;-53
2023/12/31 12:51:18;;;;;;;0.80;0.77;;;9.90;99.90;;;;;;5053206;28;20126;-49
2023/12/31 12:53:43;;;;;;;1.05;0.80;;;9.90;99.90;;;;;;5034315;28;20029;-53